Time;durP1;ratioP1;P1;durP2;ratioP2;P2;SDS_P1;SDS_P2;PMS_P1;PMS_P2;Temp;Humidity;BMP_temperature;BMP_pressure;BME280_temperature;BME280_humidity;BME280_pressure;Samples;Min_cycle;Max_cycle;Signal;HPM_P1;HPM_P2
2023/09/05 00:00:53;;;;;;;;;6.00;6.00;;;;;29.57;85.50;100916.00;2121227;27;46456;-54
2023/09/05 00:01:53;;;;;;;;;7.00;7.00;;;;;29.60;85.56;100920.28;2121716;27;46527;-54
2023/09/05 00:02:53;;;;;;;;;6.00;6.00;;;;;29.62;85.05;100918.28;2122582;27;46350;-54
2023/09/05 00:03:55;;;;;;;;;5.33;5.33;;;;;29.59;85.17;100926.78;2122414;27;46322;-55
2023/09/05 00:04:56;;;;;;;;;5.00;5.00;;;;;29.57;85.59;100917.88;2121913;27;46383;-56
2023/09/05 00:06:00;;;;;;;;;5.00;5.00;;;;;29.58;85.62;100925.06;2122246;27;46180;-56
2023/09/05 00:07:01;;;;;;;;;6.00;6.00;;;;;29.56;85.87;100925.22;2122239;27;46372;-53
2023/09/05 00:08:01;;;;;;;;;5.00;5.00;;;;;29.55;85.83;100925.38;2121744;27;46295;-55
2023/09/05 00:09:01;;;;;;;;;4.33;4.33;;;;;29.55;86.31;100919.91;2122063;27;46274;-54
2023/09/05 00:10:03;;;;;;;;;6.00;6.00;;;;;29.54;85.50;100923.66;2122157;27;46234;-54
2023/09/05 00:11:04;;;;;;;;;5.00;3.75;;;;;29.50;85.71;100914.03;2121952;27;46513;-53
2023/09/05 00:12:05;;;;;;;;;5.33;5.33;;;;;29.51;85.73;100927.56;2121950;27;46492;-55
2023/09/05 00:13:05;;;;;;;;;8.67;7.67;;;;;29.53;85.74;100916.47;2121544;27;46408;-56
2023/09/05 00:14:06;;;;;;;;;7.33;7.33;;;;;29.52;85.52;100925.69;2122134;27;46237;-56
2023/09/05 00:15:09;;;;;;;;;6.33;6.00;;;;;29.45;86.02;100927.25;2121959;27;46227;-54
2023/09/05 00:16:10;;;;;;;;;4.50;4.50;;;;;29.48;85.98;100913.31;2121126;27;46673;-55
2023/09/05 00:17:10;;;;;;;;;6.67;6.67;;;;;29.50;85.64;100916.75;2122254;27;46471;-55
2023/09/05 00:18:10;;;;;;;;;5.00;5.00;;;;;29.50;85.97;100919.50;2122012;27;46333;-54
2023/09/05 00:19:12;;;;;;;;;7.67;7.67;;;;;29.51;86.36;100924.81;2122054;27;46163;-56
2023/09/05 00:20:16;;;;;;;;;6.75;5.75;;;;;29.45;85.80;100922.63;2122074;27;46757;-56
2023/09/05 00:21:18;;;;;;;;;5.20;5.20;;;;;29.46;86.08;100920.75;2121789;27;46299;-54
2023/09/05 00:22:19;;;;;;;;;7.00;5.40;;;;;29.43;86.05;100930.13;2122516;27;46868;-54
2023/09/05 00:23:19;;;;;;;;;6.60;6.40;;;;;29.44;85.92;100928.25;2122094;27;46388;-53
2023/09/05 00:24:33;;;;;;;;;5.50;5.00;;;;;29.47;86.02;100936.19;2121990;27;46209;-52
2023/09/05 00:25:34;;;;;;;;;6.20;6.00;;;;;29.49;86.59;100923.25;2122609;27;46398;-57
2023/09/05 00:26:34;;;;;;;;;5.50;5.50;;;;;29.48;85.68;100925.13;2121649;27;46453;-56
2023/09/05 00:27:35;;;;;;;;;5.75;5.75;;;;;29.47;86.15;100919.78;2122301;27;46917;-55
2023/09/05 00:28:35;;;;;;;;;7.00;6.00;;;;;29.46;86.38;100926.22;2121859;27;46347;-55
2023/09/05 00:29:36;;;;;;;;;4.00;4.00;;;;;29.48;85.97;100925.13;2122040;27;46091;-53
2023/09/05 00:30:36;;;;;;;;;6.50;6.50;;;;;29.47;86.19;100925.25;2122263;27;46852;-56
2023/09/05 00:31:40;;;;;;;;;6.00;6.00;;;;;29.45;86.30;100925.38;2112479;27;46134;-55
2023/09/05 00:32:40;;;;;;;;;7.00;6.40;;;;;29.45;85.94;100927.25;2112990;27;46397;-56
2023/09/05 00:33:41;;;;;;;;;6.00;6.00;;;;;29.45;86.08;100927.25;2122047;27;46231;-55
2023/09/05 00:34:41;;;;;;;;;5.00;5.00;;;;;29.43;85.92;100926.53;2121790;27;46594;-55
2023/09/05 00:35:41;;;;;;;;;3.00;3.00;;;;;29.45;86.40;100929.97;2121935;27;46195;-55
2023/09/05 00:36:42;;;;;;;;;5.75;5.75;;;;;29.42;86.19;100925.66;2121955;27;46793;-55
2023/09/05 00:37:42;;;;;;;;;4.00;4.00;;;;;29.43;86.13;100921.94;2113079;27;46460;-55
2023/09/05 00:38:44;;;;;;;;;6.25;5.75;;;;;29.41;86.92;100928.56;2112975;27;46838;-52
2023/09/05 00:39:45;;;;;;;;;8.80;7.60;;;;;29.41;85.95;100923.97;2122064;27;46455;-56
2023/09/05 00:40:48;;;;;;;;;5.00;5.00;;;;;29.44;86.44;100922.78;2122141;27;46843;-54
2023/09/05 00:41:48;;;;;;;;;6.60;6.00;;;;;29.41;86.16;100929.41;2121811;27;47132;-56
2023/09/05 00:42:49;;;;;;;;;6.00;6.00;;;;;29.41;86.09;100923.09;2121870;27;46306;-55
2023/09/05 00:43:49;;;;;;;;;4.50;4.50;;;;;29.41;86.18;100923.97;2122329;27;46783;-55
2023/09/05 00:44:49;;;;;;;;;9.75;6.75;;;;;29.42;86.00;100924.81;2122098;27;46603;-54
2023/09/05 00:45:52;;;;;;;;;4.75;4.25;;;;;29.42;86.24;100917.47;2121940;27;46258;-51
2023/09/05 00:46:54;;;;;;;;;7.00;6.00;;;;;29.42;85.76;100920.22;2121792;27;46503;-56
2023/09/05 00:47:57;;;;;;;;;5.40;5.20;;;;;29.41;86.57;100923.09;2121597;27;47019;-56
2023/09/05 00:48:57;;;;;;;;;7.20;7.20;;;;;29.41;86.49;100921.22;2120734;27;46440;-54
2023/09/05 00:49:58;;;;;;;;;4.00;4.00;;;;;29.40;86.19;100919.50;2121796;27;46802;-54
2023/09/05 00:50:59;;;;;;;;;2.80;2.60;;;;;29.39;86.02;100922.38;2121873;27;46448;-54
2023/09/05 00:52:00;;;;;;;;;6.25;5.75;;;;;29.39;86.30;100922.38;2122125;27;46482;-55
2023/09/05 00:53:01;;;;;;;;;5.40;5.40;;;;;29.36;86.19;100923.56;2121718;27;46404;-53
2023/09/05 00:54:03;;;;;;;;;6.50;6.50;;;;;29.35;86.80;100919.09;2122121;27;46562;-55
2023/09/05 00:55:04;;;;;;;;;5.40;5.40;;;;;29.33;86.28;100917.50;2121900;27;46839;-56
2023/09/05 00:56:05;;;;;;;;;5.00;5.00;;;;;29.33;86.36;100917.50;2121964;27;46802;-52
2023/09/05 00:57:06;;;;;;;;;6.75;5.75;;;;;29.29;85.96;100912.34;2122208;27;46628;-55
2023/09/05 00:58:06;;;;;;;;;6.80;6.80;;;;;29.29;85.71;100912.34;2121980;27;46825;-54
2023/09/05 00:59:07;;;;;;;;;5.50;5.50;;;;;29.28;86.15;100917.97;2121681;27;46077;-53
2023/09/05 01:00:10;;;;;;;;;6.00;6.00;;;;;29.26;85.77;100914.53;2121897;27;46165;-56
2023/09/05 01:01:10;;;;;;;;;6.20;6.00;;;;;29.25;86.27;100923.72;2121834;27;46455;-54
2023/09/05 01:02:11;;;;;;;;;5.00;5.00;;;;;29.26;86.36;100920.84;2121899;27;46696;-56
2023/09/05 01:03:11;;;;;;;;;6.00;6.00;;;;;29.29;86.27;100916.94;2121567;27;46488;-52
2023/09/05 01:04:13;;;;;;;;;4.50;4.50;;;;;29.26;85.87;100917.25;2121567;27;46304;-54
2023/09/05 01:05:13;;;;;;;;;7.00;6.40;;;;;29.28;86.45;100917.97;2121934;27;45660;-55
2023/09/05 01:06:22;;;;;;;;;4.00;4.00;;;;;29.26;86.02;100912.66;2120628;27;46785;-56
2023/09/05 01:07:41;;;;;;;;;5.80;5.80;;;;;29.26;85.93;100923.59;2122017;27;46580;-58
2023/09/05 01:08:50;;;;;;;;;6.60;5.80;;;;;29.26;86.02;100920.84;2121553;27;46347;-56
2023/09/05 01:10:02;;;;;;;;;6.20;5.00;;;;;29.26;85.93;100917.25;2117609;27;46382;-54
2023/09/05 01:11:08;;;;;;;;;5.00;5.00;;;;;29.24;86.33;100919.28;2121360;27;45844;-56
2023/09/05 01:12:08;;;;;;;;;5.80;5.80;;;;;29.24;85.86;100916.53;2122023;27;46692;-57
2023/09/05 01:13:09;;;;;;;;;8.50;6.75;;;;;29.23;85.99;100906.63;2121352;27;46664;-54
2023/09/05 01:14:10;;;;;;;;;5.75;5.75;;;;;29.23;86.12;100915.69;2113079;27;45586;-55
2023/09/05 01:15:10;;;;;;;;;5.25;5.25;;;;;29.23;86.09;100915.69;2112645;27;46363;-55
2023/09/05 01:16:10;;;;;;;;;5.00;5.00;;;;;29.24;86.28;100919.28;2121485;27;46130;-55
2023/09/05 01:17:11;;;;;;;;;5.00;5.00;;;;;29.20;86.36;100918.69;2122012;27;46373;-55
2023/09/05 01:18:11;;;;;;;;;7.00;7.00;;;;;29.23;86.17;100914.81;2121655;27;46187;-56
2023/09/05 01:19:15;;;;;;;;;5.00;3.67;;;;;29.20;85.91;100904.16;2121650;27;46305;-54
2023/09/05 01:20:18;;;;;;;;;5.00;5.00;;;;;29.18;86.20;100908.94;2121654;27;46585;-52
2023/09/05 01:21:45;;;;;;;;;6.20;4.80;;;;;29.21;85.80;100908.63;2122448;27;46761;-55
2023/09/05 01:23:06;;;;;;;;;6.00;5.60;;;;;29.19;86.06;100914.25;2122966;27;46352;-54
2023/09/05 01:24:16;;;;;;;;;6.00;6.00;;;;;29.19;86.33;100910.66;2123554;27;45787;-55
2023/09/05 01:25:17;;;;;;;;;6.50;6.00;;;;;29.18;86.35;100911.66;2123271;27;46892;-56
2023/09/05 01:26:19;;;;;;;;;6.00;6.00;;;;;29.16;86.33;100905.47;2123274;27;46653;-55
2023/09/05 01:27:22;;;;;;;;;6.50;6.50;;;;;29.15;85.83;100911.97;2123155;27;46264;-56
2023/09/05 01:28:23;;;;;;;;;4.00;4.00;;;;;29.14;86.45;100912.97;2123375;27;46351;-56
2023/09/05 01:29:30;;;;;;;;;6.75;6.75;;;;;29.14;86.12;100912.97;2123130;27;46751;-54
2023/09/05 01:30:31;;;;;;;;;5.25;5.25;;;;;29.13;86.39;100916.72;2123114;27;47033;-55
2023/09/05 01:31:32;;;;;;;;;6.33;5.33;;;;;29.13;86.23;100914.00;2114242;27;46166;-54
2023/09/05 01:32:32;;;;;;;;;6.25;6.25;;;;;29.10;86.36;100912.41;2114048;27;46493;-56
2023/09/05 01:33:39;;;;;;;;;4.50;4.50;;;;;29.12;86.46;100915.00;2122949;27;46605;-54
2023/09/05 01:34:41;;;;;;;;;6.00;6.00;;;;;29.10;86.08;100909.69;2105060;28;46662;-56
2023/09/05 01:35:41;;;;;;;;;8.00;7.20;;;;;29.11;86.46;100910.53;2106134;27;46458;-56
2023/09/05 01:36:41;;;;;;;;;5.50;5.50;;;;;29.08;86.57;100911.69;2123078;27;46403;-56
2023/09/05 01:37:42;;;;;;;;;5.75;5.75;;;;;29.09;86.42;100909.81;2123385;27;45797;-52
2023/09/05 01:38:43;;;;;;;;;6.00;6.00;;;;;29.10;86.30;100911.56;2113126;27;46665;-56
2023/09/05 01:39:43;;;;;;;;;5.00;5.00;;;;;29.08;86.66;100910.81;2114021;27;47054;-55
2023/09/05 01:40:44;;;;;;;;;4.50;4.50;;;;;29.12;86.70;100909.53;2113650;27;46479;-54
2023/09/05 01:41:44;;;;;;;;;5.75;5.75;;;;;29.11;86.63;100911.41;2114079;27;46168;-55
2023/09/05 01:42:45;;;;;;;;;6.00;6.00;;;;;29.09;86.65;100907.94;2123100;27;46450;-56
2023/09/05 01:43:45;;;;;;;;;7.00;7.00;;;;;29.07;86.77;100911.84;2113708;27;46250;-56
2023/09/05 01:44:45;;;;;;;;;8.50;6.00;;;;;29.08;86.86;100908.94;2113800;27;46710;-55
2023/09/05 01:45:45;;;;;;;;;5.75;5.75;;;;;29.08;86.50;100905.34;2123334;27;46685;-55
2023/09/05 01:46:46;;;;;;;;;7.00;7.00;;;;;29.08;86.82;100908.94;2122774;27;46612;-54
2023/09/05 01:47:46;;;;;;;;;8.00;8.00;;;;;29.06;86.89;100910.09;2123322;27;46287;-53
2023/09/05 01:48:46;;;;;;;;;7.00;7.00;;;;;29.04;86.89;100913.00;2122793;27;46285;-55
2023/09/05 01:49:47;;;;;;;;;6.25;6.25;;;;;29.04;86.93;100910.25;2123552;27;46053;-56
2023/09/05 01:50:48;;;;;;;;;7.75;7.50;;;;;29.03;87.23;100908.53;2122783;27;46565;-55
2023/09/05 01:51:48;;;;;;;;;7.80;7.80;;;;;29.02;86.68;100907.69;2123307;27;46962;-56
2023/09/05 01:52:48;;;;;;;;;8.75;7.00;;;;;29.02;87.00;100902.22;2123233;27;46308;-55
2023/09/05 01:53:49;;;;;;;;;8.25;8.25;;;;;29.03;87.27;100905.81;2122861;27;46261;-54
2023/09/05 01:54:50;;;;;;;;;8.25;7.50;;;;;29.03;87.14;100908.53;2123077;27;46423;-56
2023/09/05 01:55:50;;;;;;;;;9.80;8.80;;;;;29.01;87.27;100905.09;2122910;27;46502;-57
2023/09/05 01:56:51;;;;;;;;;7.50;6.00;;;;;29.00;87.21;100898.78;2121512;27;46216;-55
2023/09/05 01:57:51;;;;;;;;;8.50;7.00;;;;;28.99;87.04;100899.78;2123198;27;46472;-54
2023/09/05 01:58:51;;;;;;;;;6.00;6.00;;;;;29.00;87.06;100903.38;2104746;28;46285;-55
2023/09/05 01:59:52;;;;;;;;;7.25;7.00;;;;;28.99;87.43;100898.94;2104951;28;46725;-53
2023/09/05 02:00:52;;;;;;;;;7.00;7.00;;;;;28.99;87.75;100902.53;2122912;27;46352;-54
2023/09/05 02:01:52;;;;;;;;;7.50;7.50;;;;;28.99;87.47;100907.13;2122884;27;46312;-53
2023/09/05 02:02:53;;;;;;;;;6.00;5.00;;;;;28.93;87.32;100897.63;2123115;27;46160;-55
2023/09/05 02:03:54;;;;;;;;;7.00;7.00;;;;;28.97;87.49;100899.09;2113897;27;46174;-57
2023/09/05 02:04:54;;;;;;;;;6.00;6.00;;;;;28.97;87.06;100899.09;2106772;27;46304;-56
2023/09/05 02:05:55;;;;;;;;;8.75;8.50;;;;;28.95;87.45;100889.28;2117022;27;46266;-53
2023/09/05 02:06:55;;;;;;;;;9.25;9.00;;;;;28.96;87.36;100891.84;2113293;27;46419;-54
2023/09/05 02:07:56;;;;;;;;;5.00;5.00;;;;;28.95;87.23;100883.81;2113803;27;46319;-53
2023/09/05 02:08:56;;;;;;;;;4.00;4.00;;;;;28.94;87.60;100888.41;2113680;27;46257;-55
2023/09/05 02:09:57;;;;;;;;;7.25;7.25;;;;;28.92;87.59;100881.38;2105094;27;46175;-55
2023/09/05 02:10:57;;;;;;;;;5.00;5.00;;;;;28.94;87.70;100887.56;2113809;27;46804;-56
2023/09/05 02:11:57;;;;;;;;;9.50;8.50;;;;;28.97;87.35;100885.41;2122931;27;46427;-56
2023/09/05 02:12:58;;;;;;;;;8.00;7.25;;;;;28.97;87.29;100890.88;2121710;27;46522;-54
2023/09/05 02:13:58;;;;;;;;;7.00;7.00;;;;;28.99;87.49;100896.19;2122577;27;46263;-57
2023/09/05 02:15:00;;;;;;;;;11.50;9.25;;;;;28.98;87.37;100886.28;2122511;27;46683;-56
2023/09/05 02:16:00;;;;;;;;;7.40;7.40;;;;;28.94;87.58;100885.69;2113638;27;46553;-55
2023/09/05 02:17:00;;;;;;;;;8.00;7.00;;;;;28.93;87.88;100880.38;2114070;27;46770;-57
2023/09/05 02:18:02;;;;;;;;;9.75;8.75;;;;;28.90;87.35;100884.28;2122956;27;46235;-56
2023/09/05 02:19:02;;;;;;;;;3.00;2.00;;;;;28.89;87.78;100881.69;2122653;27;46426;-55
2023/09/05 02:20:06;;;;;;;;;5.75;5.75;;;;;28.86;87.57;100877.34;2122595;27;46519;-54
2023/09/05 02:21:06;;;;;;;;;6.40;6.40;;;;;28.87;88.00;100880.94;2122664;27;46746;-54
2023/09/05 02:22:06;;;;;;;;;5.25;5.25;;;;;28.87;87.77;100870.03;2122939;27;46973;-56
2023/09/05 02:23:07;;;;;;;;;6.25;6.25;;;;;28.91;87.65;100880.53;2114361;27;46369;-56
2023/09/05 02:24:07;;;;;;;;;8.25;6.75;;;;;28.90;87.79;100877.94;2119723;27;46284;-54
2023/09/05 02:25:08;;;;;;;;;9.00;7.50;;;;;28.85;87.77;100882.97;2122813;27;46886;-54
2023/09/05 02:26:09;;;;;;;;;6.75;6.75;;;;;28.83;88.12;100877.63;2122534;27;46448;-56
2023/09/05 02:27:09;;;;;;;;;7.00;6.80;;;;;28.80;88.19;100877.94;2122640;27;46725;-55
2023/09/05 02:28:09;;;;;;;;;6.75;6.75;;;;;28.80;88.13;100880.66;2122976;27;46378;-55
2023/09/05 02:29:10;;;;;;;;;11.00;10.00;;;;;28.80;88.22;100885.25;2121481;27;46761;-55
2023/09/05 02:30:10;;;;;;;;;5.75;5.75;;;;;28.77;89.08;100886.44;2122903;27;46991;-55
2023/09/05 02:31:11;;;;;;;;;7.50;7.50;;;;;28.75;88.88;100887.59;2121640;27;47046;-53
2023/09/05 02:32:11;;;;;;;;;7.00;6.00;;;;;28.76;88.97;100881.13;2122375;27;46786;-56
2023/09/05 02:33:12;;;;;;;;;6.00;6.00;;;;;28.75;88.63;100884.84;2122463;27;46296;-55
2023/09/05 02:34:12;;;;;;;;;7.00;6.75;;;;;28.76;88.74;100890.16;2123043;27;46280;-57
2023/09/05 02:35:14;;;;;;;;;6.50;6.50;;;;;28.78;88.71;100890.03;2122917;27;46835;-55
2023/09/05 02:36:15;;;;;;;;;6.00;6.00;;;;;28.77;88.76;100885.56;2122980;27;46738;-56
2023/09/05 02:37:16;;;;;;;;;7.60;7.00;;;;;28.79;88.59;100889.88;2122577;27;46641;-55
2023/09/05 02:38:16;;;;;;;;;8.50;7.00;;;;;28.79;88.86;100889.00;2122700;27;46300;-56
2023/09/05 02:39:16;;;;;;;;;6.50;6.50;;;;;28.78;88.86;100884.56;2117333;27;46353;-56
2023/09/05 02:40:17;;;;;;;;;7.25;7.25;;;;;28.78;88.64;100881.81;2122312;27;46720;-54
2023/09/05 02:41:18;;;;;;;;;5.75;5.75;;;;;28.77;88.62;100880.09;2122180;27;46291;-56
2023/09/05 02:42:18;;;;;;;;;7.75;7.25;;;;;28.75;88.69;100885.72;2117707;27;46519;-53
2023/09/05 02:43:18;;;;;;;;;6.00;6.00;;;;;28.73;88.78;100885.88;2122495;27;45860;-52
2023/09/05 02:44:19;;;;;;;;;5.75;5.75;;;;;28.72;88.92;100883.28;2121736;27;46543;-56
2023/09/05 02:45:19;;;;;;;;;7.00;6.00;;;;;28.68;89.06;100877.22;2121683;27;45623;-53
2023/09/05 02:46:21;;;;;;;;;8.33;7.33;;;;;28.68;89.19;100882.69;2116117;27;46523;-55
2023/09/05 02:47:21;;;;;;;;;6.20;6.20;;;;;28.65;89.24;100880.25;2123040;27;47019;-55
2023/09/05 02:48:21;;;;;;;;;7.25;7.25;;;;;28.64;89.00;100886.72;2119438;27;46186;-52
2023/09/05 02:49:22;;;;;;;;;8.50;7.75;;;;;28.61;89.05;100887.03;2119762;27;47045;-55
2023/09/05 02:50:22;;;;;;;;;7.00;7.00;;;;;28.63;89.33;100892.34;2122779;27;46274;-59
2023/09/05 02:51:22;;;;;;;;;6.00;6.00;;;;;28.62;89.09;100887.91;2117548;27;46176;-56
2023/09/05 02:52:24;;;;;;;;;6.00;5.00;;;;;28.61;89.16;100887.03;2113509;27;46201;-55
2023/09/05 02:53:24;;;;;;;;;7.50;7.50;;;;;28.59;89.52;100889.06;2113574;27;46440;-56
2023/09/05 02:54:28;;;;;;;;;7.00;7.00;;;;;28.59;89.42;100890.91;2122878;27;45964;-54
2023/09/05 02:55:29;;;;;;;;;9.50;7.75;;;;;28.58;89.41;100880.97;2122361;27;46441;-55
2023/09/05 02:56:29;;;;;;;;;6.75;6.75;;;;;28.58;89.46;100889.16;2122627;27;46605;-57
2023/09/05 02:57:29;;;;;;;;;6.67;5.67;;;;;28.58;89.57;100880.97;2123057;27;46536;-55
2023/09/05 02:58:31;;;;;;;;;7.00;7.00;;;;;28.58;89.70;100876.38;2122766;27;46551;-56
2023/09/05 02:59:32;;;;;;;;;5.75;5.75;;;;;28.57;89.58;100884.72;2122804;27;47223;-55
2023/09/05 03:00:35;;;;;;;;;8.50;8.00;;;;;28.56;89.83;100888.47;2122644;27;46201;-56
2023/09/05 03:01:36;;;;;;;;;6.80;6.80;;;;;28.55;89.88;100889.47;2122697;27;46943;-55
2023/09/05 03:02:40;;;;;;;;;7.00;7.00;;;;;28.54;89.90;100885.88;2122597;27;46621;-55
2023/09/05 03:03:40;;;;;;;;;6.00;6.00;;;;;28.55;89.95;100893.06;2122231;27;46876;-54
2023/09/05 03:04:40;;;;;;;;;9.00;9.00;;;;;28.55;89.85;100886.75;2122451;27;46184;-53
2023/09/05 03:05:41;;;;;;;;;8.00;8.00;;;;;28.54;89.66;100891.34;2113286;27;46287;-55
2023/09/05 03:06:41;;;;;;;;;6.50;6.50;;;;;28.54;89.72;100885.00;2113192;27;46805;-54
2023/09/05 03:07:41;;;;;;;;;9.25;7.75;;;;;28.51;89.68;100882.59;2104094;28;46295;-54
2023/09/05 03:08:44;;;;;;;;;7.00;5.00;;;;;28.50;89.46;100881.72;2104927;28;46346;-56
2023/09/05 03:09:45;;;;;;;;;7.50;7.00;;;;;28.50;89.80;100880.88;2103092;28;46540;-53
2023/09/05 03:10:52;;;;;;;;;11.00;11.00;;;;;28.49;89.68;100880.00;2104423;28;46509;-54
2023/09/05 03:11:52;;;;;;;;;0.00;0.00;;;;;28.48;89.90;100880.16;2104671;28;46289;-54
2023/09/05 03:12:52;;;;;;;;;8.25;7.00;;;;;28.46;90.20;100880.28;2103798;28;45278;-53
2023/09/05 03:13:53;;;;;;;;;9.33;9.33;;;;;28.46;90.55;100884.88;2101441;28;46180;-53
2023/09/05 03:14:53;;;;;;;;;8.00;8.00;;;;;28.43;90.01;100878.69;2104515;28;46909;-56
2023/09/05 03:15:54;;;;;;;;;6.75;6.75;;;;;28.44;90.46;100885.00;2104649;28;46457;-55
2023/09/05 03:16:54;;;;;;;;;9.75;8.75;;;;;28.43;90.21;100884.16;2104346;28;46704;-56
2023/09/05 03:17:54;;;;;;;;;5.00;4.75;;;;;28.43;90.35;100883.28;2104190;28;46715;-55
2023/09/05 03:18:59;;;;;;;;;5.50;5.50;;;;;28.42;90.51;100878.84;2104780;28;46393;-55
2023/09/05 03:19:59;;;;;;;;;7.20;6.80;;;;;28.43;90.56;100875.09;2104600;28;46534;-55
2023/09/05 03:21:00;;;;;;;;;8.50;8.50;;;;;28.41;90.31;100875.25;2105166;27;46691;-56
2023/09/05 03:22:00;;;;;;;;;6.33;6.33;;;;;28.39;90.34;100869.06;2104747;28;46733;-57
2023/09/05 03:23:00;;;;;;;;;8.33;8.33;;;;;28.38;90.36;100871.97;2104860;28;46288;-55
2023/09/05 03:24:01;;;;;;;;;6.67;6.67;;;;;28.37;90.43;100867.50;2102450;28;46168;-55
2023/09/05 03:25:01;;;;;;;;;8.00;8.00;;;;;28.36;90.67;100874.84;2104344;28;46885;-55
2023/09/05 03:26:01;;;;;;;;;7.00;7.00;;;;;28.34;90.69;100870.53;2104812;28;45879;-53
2023/09/05 03:27:03;;;;;;;;;6.00;6.00;;;;;28.34;90.36;100874.13;2097632;28;46487;-56
2023/09/05 03:28:04;;;;;;;;;7.00;6.20;;;;;28.33;90.55;100868.78;2104534;28;46753;-54
2023/09/05 03:29:07;;;;;;;;;8.50;8.25;;;;;28.33;90.37;100869.66;2104880;28;46079;-55
2023/09/05 03:30:07;;;;;;;;;7.75;7.00;;;;;28.31;90.64;100870.78;2104365;28;46876;-55
2023/09/05 03:31:08;;;;;;;;;7.00;7.00;;;;;28.31;90.68;100873.53;2104242;28;46792;-57
2023/09/05 03:32:08;;;;;;;;;7.00;7.00;;;;;28.29;90.98;100870.94;2104412;28;46488;-53
2023/09/05 03:33:09;;;;;;;;;8.00;8.00;;;;;28.26;90.93;100865.75;2104389;28;46343;-54
2023/09/05 03:34:10;;;;;;;;;9.00;7.80;;;;;28.29;91.05;100870.09;2104366;28;46934;-55
2023/09/05 03:35:10;;;;;;;;;10.00;8.25;;;;;28.28;90.89;100873.81;2104630;28;46336;-55
2023/09/05 03:36:11;;;;;;;;;7.00;7.00;;;;;28.28;90.69;100869.22;2104373;28;46857;-55
2023/09/05 03:37:11;;;;;;;;;7.00;7.00;;;;;28.30;90.90;100871.81;2104427;28;46223;-56
2023/09/05 03:38:11;;;;;;;;;7.00;7.00;;;;;28.33;91.07;100868.78;2104530;28;46538;-55
2023/09/05 03:39:12;;;;;;;;;9.33;8.00;;;;;28.33;90.65;100861.47;2109233;27;46642;-54
2023/09/05 03:40:12;;;;;;;;;7.50;7.50;;;;;28.35;90.57;100867.66;2119559;27;46638;-54
2023/09/05 03:41:13;;;;;;;;;6.00;6.00;;;;;28.34;90.36;100863.19;2122470;27;46527;-54
2023/09/05 03:42:14;;;;;;;;;8.00;6.67;;;;;28.34;90.63;100865.94;2122218;27;46469;-55
2023/09/05 03:43:14;;;;;;;;;8.00;8.00;;;;;28.34;90.35;100865.94;2121406;27;46954;-55
2023/09/05 03:44:16;;;;;;;;;7.67;7.67;;;;;28.35;90.20;100869.53;2122618;27;46725;-53
2023/09/05 03:45:18;;;;;;;;;5.75;5.75;;;;;28.34;89.77;100873.25;2122247;27;46406;-54
2023/09/05 03:46:18;;;;;;;;;9.00;8.00;;;;;28.33;90.06;100866.06;2122312;27;46363;-52
2023/09/05 03:47:19;;;;;;;;;9.67;8.00;;;;;28.32;90.42;100873.38;2122399;27;46400;-55
2023/09/05 03:48:20;;;;;;;;;7.00;5.67;;;;;28.32;90.22;100873.38;2112941;27;46215;-55
2023/09/05 03:49:20;;;;;;;;;9.00;8.00;;;;;28.32;89.90;100870.66;2113050;27;46733;-55
2023/09/05 03:50:21;;;;;;;;;9.00;8.00;;;;;28.28;90.56;100865.63;2113286;27;46497;-56
2023/09/05 03:51:22;;;;;;;;;9.00;9.00;;;;;28.29;90.29;100862.75;2098944;27;46747;-55
2023/09/05 03:52:22;;;;;;;;;10.33;9.00;;;;;28.29;90.35;100854.56;2104886;28;47068;-56
2023/09/05 03:53:22;;;;;;;;;7.00;7.00;;;;;28.29;90.32;100854.56;2113787;27;46879;-55
2023/09/05 03:54:23;;;;;;;;;7.00;7.00;;;;;28.28;90.27;100852.84;2123042;27;46228;-55
2023/09/05 03:55:24;;;;;;;;;7.00;7.00;;;;;28.28;90.32;100851.97;2113051;27;47000;-53
2023/09/05 03:56:24;;;;;;;;;11.00;9.33;;;;;28.27;90.49;100850.25;2113625;27;46773;-57
2023/09/05 03:57:25;;;;;;;;;8.67;8.67;;;;;28.25;90.37;100839.47;2122149;27;46165;-53
2023/09/05 03:58:25;;;;;;;;;10.75;8.75;;;;;28.27;90.41;100842.06;2121192;27;46186;-56
2023/09/05 03:59:25;;;;;;;;;7.33;5.00;;;;;28.26;90.65;100841.19;2122130;27;46674;-53
2023/09/05 04:00:26;;;;;;;;;7.00;7.00;;;;;28.26;90.68;100838.44;2122457;27;46745;-53
2023/09/05 04:01:27;;;;;;;;;7.00;7.00;;;;;28.25;90.54;100831.28;2121775;27;46980;-55
2023/09/05 04:02:27;;;;;;;;;8.33;8.00;;;;;28.24;90.29;100832.28;2122115;27;46799;-55
2023/09/05 04:03:27;;;;;;;;;7.33;7.00;;;;;28.22;90.50;100827.97;2122767;27;46489;-54
2023/09/05 04:04:28;;;;;;;;;7.67;7.67;;;;;28.21;90.72;100826.25;2122048;27;46804;-55
2023/09/05 04:05:29;;;;;;;;;9.50;9.50;;;;;28.20;90.65;100827.25;2122349;27;46296;-56
2023/09/05 04:06:29;;;;;;;;;6.25;6.25;;;;;28.19;90.84;100828.25;2122361;27;46476;-55
2023/09/05 04:07:29;;;;;;;;;8.67;7.67;;;;;28.18;90.97;100827.38;2121714;27;46310;-55
2023/09/05 04:08:30;;;;;;;;;8.75;8.75;;;;;28.18;90.92;100827.38;2122232;27;46926;-56
2023/09/05 04:09:30;;;;;;;;;5.00;5.00;;;;;28.18;90.90;100830.13;2122428;27;45906;-53
2023/09/05 04:10:30;;;;;;;;;8.75;8.75;;;;;28.17;90.78;100833.84;2122127;27;46458;-53
2023/09/05 04:11:31;;;;;;;;;8.50;8.50;;;;;28.17;90.60;100828.41;2121961;27;46597;-56
2023/09/05 04:12:31;;;;;;;;;8.50;7.50;;;;;28.18;90.97;100837.44;2122116;27;46580;-56
2023/09/05 04:13:31;;;;;;;;;9.25;8.75;;;;;28.15;91.12;100827.69;2121638;27;46386;-55
2023/09/05 04:14:32;;;;;;;;;8.00;8.00;;;;;28.19;91.16;100833.72;2122147;27;46911;-53
2023/09/05 04:15:32;;;;;;;;;7.50;6.75;;;;;28.15;91.01;100827.69;2122133;27;46630;-52
2023/09/05 04:16:32;;;;;;;;;7.33;7.33;;;;;28.14;91.52;100836.88;2120657;27;46689;-56
2023/09/05 04:17:33;;;;;;;;;9.75;9.75;;;;;28.15;91.20;100830.41;2117028;27;46288;-56
2023/09/05 04:18:36;;;;;;;;;8.33;7.67;;;;;28.14;91.24;100829.56;2121853;27;46451;-53
2023/09/05 04:19:36;;;;;;;;;9.80;8.00;;;;;28.13;90.97;100833.28;2122323;27;46657;-54
2023/09/05 04:20:37;;;;;;;;;9.00;9.00;;;;;28.13;91.38;100829.69;2122346;27;46529;-54
2023/09/05 04:21:39;;;;;;;;;7.50;7.50;;;;;28.13;91.00;100826.97;2112789;27;46641;-55
2023/09/05 04:22:39;;;;;;;;;7.00;7.00;;;;;28.12;90.90;100830.72;2112280;27;46985;-55
2023/09/05 04:23:39;;;;;;;;;7.75;7.75;;;;;28.11;90.74;100827.13;2113304;27;46388;-54
2023/09/05 04:24:40;;;;;;;;;7.00;7.00;;;;;28.11;90.64;100827.13;2122545;27;46081;-56
2023/09/05 04:25:40;;;;;;;;;9.00;8.00;;;;;28.11;90.45;100828.97;2121825;27;46303;-54
2023/09/05 04:26:45;;;;;;;;;8.50;7.50;;;;;28.10;90.85;100827.25;2104630;28;46291;-54
2023/09/05 04:27:45;;;;;;;;;8.25;8.25;;;;;28.10;90.65;100827.25;2105626;27;46381;-57
2023/09/05 04:28:46;;;;;;;;;6.75;6.25;;;;;28.10;90.42;100835.44;2121894;27;46654;-54
2023/09/05 04:29:54;;;;;;;;;9.50;7.75;;;;;28.10;90.47;100832.72;2122627;27;46282;-56
2023/09/05 04:30:55;;;;;;;;;9.00;7.00;;;;;28.09;90.33;100834.59;2122417;27;45653;-56
2023/09/05 04:31:55;;;;;;;;;9.60;8.80;;;;;28.08;90.53;100835.59;2120570;27;46807;-54
2023/09/05 04:32:57;;;;;;;;;7.50;7.50;;;;;28.08;90.42;100846.50;2121918;27;46696;-55
2023/09/05 04:33:57;;;;;;;;;7.40;7.40;;;;;28.07;90.31;100852.94;2122602;27;45599;-56
2023/09/05 04:35:00;;;;;;;;;7.50;6.00;;;;;28.07;90.35;100849.34;2112860;27;46607;-55
2023/09/05 04:36:00;;;;;;;;;6.00;6.00;;;;;28.06;90.42;100853.09;2113249;27;46470;-54
2023/09/05 04:37:01;;;;;;;;;7.25;6.50;;;;;28.05;90.24;100854.09;2113032;27;47020;-57
2023/09/05 04:38:01;;;;;;;;;6.00;6.00;;;;;28.05;90.27;100856.81;2112522;27;46676;-55
2023/09/05 04:39:04;;;;;;;;;9.00;8.00;;;;;28.04;90.56;100857.84;2103626;28;46193;-55
2023/09/05 04:40:07;;;;;;;;;7.80;7.80;;;;;28.05;90.54;100859.56;2104626;27;46911;-56
2023/09/05 04:41:07;;;;;;;;;7.60;6.60;;;;;28.02;90.17;100857.97;2122030;27;47266;-54
2023/09/05 04:42:07;;;;;;;;;5.25;5.25;;;;;28.01;90.25;100858.13;2122085;27;46385;-56
2023/09/05 04:43:08;;;;;;;;;8.00;8.00;;;;;28.02;90.35;100857.97;2121824;27;47003;-56
2023/09/05 04:44:08;;;;;;;;;6.75;6.25;;;;;28.02;90.32;100865.31;2121404;27;46614;-56
2023/09/05 04:45:09;;;;;;;;;8.75;7.00;;;;;28.02;90.45;100863.44;2122039;27;46427;-56